Estación Meteorológica Peña el Pijo (Robertgarden) [ 02/03/23 03:40:59 CET ]

Fecha Hora Presion(HPa) Temp (°C) Humedad % Rocio (°C) Viento ( m/s) Direccion Lluvia 1Hora(mm) Lluvia 24H(mm) LLuvia Total(mm)
2010-Oct-03 01:01:14 1009.400 10.9 64 4.3         160.58
2010-Oct-03 02:01:18 1008.900 10.3 67 4.4         160.58
2010-Oct-03 03:03:18 1008.700 9.8 69 4.4         160.58
2010-Oct-03 04:01:12 1008.400 9.3 72 4.5         160.58
2010-Oct-03 05:01:17 1007.900 8.9 74 4.5         160.58
2010-Oct-03 06:01:14 1007.800 8.8 77 5.0         160.58
2010-Oct-03 07:01:14 1007.600 8.7 77 4.9         160.58
2010-Oct-03 08:01:13 1007.200 8.2 79 4.8         160.58
2010-Oct-03 09:01:16 1007.300 7.8 80 4.6         160.58
2010-Oct-03 10:01:16 1007.200 13.6 71 8.4         160.58
2010-Oct-03 11:01:16 1006.600 21.3 48 9.8         160.58
2010-Oct-03 12:01:18 1006.600 25.8 28 5.8         160.58
2010-Oct-03 13:01:12 1006.500 28.9 23 5.5         160.58
2010-Oct-03 14:01:16 1005.700 29.4 20 4.1         160.58
2010-Oct-03 15:01:15 1005.000 27.1 21 2.9         160.58
2010-Oct-03 16:01:12 1004.000 29.0 16 0.0         160.58
2010-Oct-03 17:01:16 1003.500 27.2 20 2.4         160.58
2010-Oct-03 18:01:12 1003.800 22.6 37 7.1         160.58
2010-Oct-03 19:01:16 1003.600 19.8 42 6.5 1.4 W     160.58
2010-Oct-03 20:01:17 1003.900 17.9 49 7.0         160.58
2010-Oct-03 21:01:16 1003.900 16.6 53 7.0         160.58
2010-Oct-03 22:01:12 1003.800 16.1 56 7.3         160.58
2010-Oct-03 23:01:11 1003.600 15.0 59 7.0         160.58

Temperatura Máxima:29°    Temperatura Mínima:
Presión Máxima:1009.400 Hpa    Presión Mínima:1003.500 Hpa


Volver